createdAt,value
2018-09-24T00:00:21.727Z,4.75
2018-09-24T00:02:49.175Z,4.03
2018-09-24T00:05:16.607Z,3.00
2018-09-24T00:07:44.053Z,3.80
2018-09-24T00:10:11.471Z,2.95
2018-09-24T00:12:38.919Z,3.15
2018-09-24T00:15:06.366Z,3.00
2018-09-24T00:17:33.778Z,2.80
2018-09-24T00:20:01.239Z,3.00
2018-09-24T00:22:28.634Z,2.80
2018-09-24T00:24:56.115Z,2.80
2018-09-24T00:27:23.507Z,3.45
2018-09-24T00:29:50.951Z,2.95
2018-09-24T00:32:18.391Z,3.00
2018-09-24T00:34:45.809Z,2.92
2018-09-24T00:37:13.237Z,2.75
2018-09-24T00:39:40.627Z,3.00
2018-09-24T00:42:08.073Z,3.22
2018-09-24T00:44:35.497Z,2.92
2018-09-24T00:47:02.926Z,3.22
2018-09-24T00:49:30.415Z,2.90
2018-09-24T00:51:57.823Z,2.78
2018-09-24T00:54:25.400Z,3.62
2018-09-24T00:56:52.849Z,2.80
2018-09-24T00:59:20.247Z,3.35
2018-09-24T01:01:47.679Z,2.80
2018-09-24T01:04:15.144Z,3.22
2018-09-24T01:06:42.615Z,2.80
2018-09-24T01:09:10.175Z,2.85
2018-09-24T01:11:37.611Z,2.80
2018-09-24T01:14:05.072Z,2.90
2018-09-24T01:16:32.514Z,2.80
2018-09-24T01:19:00.015Z,2.80
2018-09-24T01:21:27.465Z,2.90
2018-09-24T01:23:54.894Z,2.90
2018-09-24T01:26:22.345Z,2.87
2018-09-24T01:28:49.746Z,2.80
2018-09-24T01:31:17.278Z,3.10
2018-09-24T01:33:44.666Z,2.90
2018-09-24T01:36:12.113Z,2.78
2018-09-24T01:38:39.562Z,3.00
2018-09-24T01:41:07.030Z,3.20
2018-09-24T01:43:34.474Z,3.37
2018-09-24T01:46:01.955Z,2.90
2018-09-24T01:48:29.382Z,2.92
2018-09-24T01:50:56.819Z,2.80
2018-09-24T01:53:24.284Z,2.80
2018-09-24T01:55:51.682Z,3.37
2018-09-24T01:58:19.117Z,2.78
2018-09-24T02:00:46.564Z,2.80
2018-09-24T02:03:14.000Z,3.00
2018-09-24T02:05:41.479Z,30.70
2018-09-24T02:08:08.884Z,18.98
2018-09-24T02:10:36.373Z,14.70
2018-09-24T02:13:03.762Z,9.18
2018-09-24T02:15:31.198Z,4.85
2018-09-24T02:17:58.634Z,4.10
2018-09-24T02:20:26.057Z,3.50
2018-09-24T02:22:53.498Z,3.50
2018-09-24T02:25:20.960Z,3.40
2018-09-24T02:27:48.537Z,3.90
2018-09-24T02:30:15.942Z,3.40
2018-09-24T02:32:43.396Z,3.80
2018-09-24T02:35:10.773Z,3.10
2018-09-24T02:37:38.212Z,4.37
2018-09-24T02:40:05.682Z,3.20
2018-09-24T02:42:33.053Z,5.35
2018-09-24T02:45:00.552Z,5.62
2018-09-24T02:47:27.954Z,3.20
2018-09-24T02:49:55.400Z,4.00
2018-09-24T02:52:22.814Z,3.30
2018-09-24T02:54:50.206Z,4.68
2018-09-24T02:57:17.649Z,3.05
2018-09-24T02:59:45.041Z,3.10
2018-09-24T03:02:12.482Z,3.17
2018-09-24T03:04:39.968Z,3.40
2018-09-24T03:07:07.451Z,3.30
2018-09-24T03:09:34.942Z,3.00
2018-09-24T03:12:02.353Z,3.50
2018-09-24T03:14:29.800Z,3.00
2018-09-24T03:16:57.202Z,3.22
2018-09-24T03:19:24.644Z,3.10
2018-09-24T03:21:52.075Z,4.40
2018-09-24T03:24:19.506Z,3.17
2018-09-24T03:26:46.970Z,3.00
2018-09-24T03:29:14.392Z,3.30
2018-09-24T03:31:42.525Z,3.10
2018-09-24T03:34:09.956Z,3.28
2018-09-24T03:36:37.475Z,3.20
2018-09-24T03:39:04.932Z,3.50
2018-09-24T03:41:32.437Z,3.00
2018-09-24T03:43:59.895Z,3.75
2018-09-24T03:46:27.289Z,3.72
2018-09-24T03:48:54.724Z,4.35
2018-09-24T03:51:22.153Z,3.40
2018-09-24T03:53:49.588Z,3.00
2018-09-24T03:56:17.241Z,3.10
2018-09-24T03:58:44.744Z,4.65
2018-09-24T04:01:12.162Z,3.47
2018-09-24T04:03:39.611Z,3.10
2018-09-24T04:06:12.556Z,2.90
2018-09-24T04:08:45.610Z,2.90
2018-09-24T04:11:18.740Z,3.75
2018-09-24T04:13:51.795Z,3.33
2018-09-24T04:16:24.936Z,3.10
2018-09-24T04:18:57.885Z,3.40
2018-09-24T04:21:31.095Z,3.20
2018-09-24T04:24:04.350Z,3.65
2018-09-24T04:26:37.581Z,3.50
2018-09-24T04:29:10.505Z,3.67
2018-09-24T04:31:43.650Z,3.42
2018-09-24T04:34:16.757Z,4.53
2018-09-24T04:36:49.827Z,3.20
2018-09-24T04:39:22.997Z,3.40
2018-09-24T04:41:56.095Z,3.00
2018-09-24T04:44:29.169Z,3.00
2018-09-24T04:47:02.334Z,3.10
2018-09-24T04:49:35.385Z,2.85
2018-09-24T04:52:08.505Z,3.20
2018-09-24T04:54:41.569Z,3.10
2018-09-24T04:57:14.643Z,3.00
2018-09-24T04:59:47.767Z,3.65
2018-09-24T05:02:20.996Z,3.35
2018-09-24T05:04:54.089Z,3.30
2018-09-24T05:07:27.374Z,3.53
2018-09-24T05:10:00.465Z,3.60
2018-09-24T05:12:33.460Z,4.05
2018-09-24T05:15:06.673Z,3.87
2018-09-24T05:17:39.846Z,3.35
2018-09-24T05:20:12.910Z,3.25
2018-09-24T05:22:45.931Z,3.30
2018-09-24T05:25:18.980Z,4.70
2018-09-24T05:27:52.157Z,4.10
2018-09-24T05:37:14.723Z,3.75
2018-09-24T05:39:47.771Z,3.15
2018-09-24T05:42:20.974Z,3.30
2018-09-24T05:44:54.169Z,3.50
2018-09-24T05:47:27.146Z,3.03
2018-09-24T05:50:00.229Z,3.10
2018-09-24T05:52:33.433Z,3.85
2018-09-24T05:55:06.435Z,3.45
2018-09-24T05:57:39.630Z,4.10
2018-09-24T06:00:12.868Z,3.72
2018-09-24T06:02:45.846Z,3.30
2018-09-24T06:05:18.831Z,4.65
2018-09-24T06:07:52.051Z,11.90
2018-09-24T06:10:25.227Z,3.30
2018-09-24T06:12:58.370Z,3.70
2018-09-24T06:15:31.342Z,3.60
2018-09-24T06:18:04.510Z,3.40
2018-09-24T06:20:37.660Z,3.15
2018-09-24T06:23:10.670Z,16.05
2018-09-24T06:25:43.726Z,14.98
2018-09-24T06:28:16.908Z,18.48
2018-09-24T06:35:55.218Z,21.70
2018-09-24T06:38:28.241Z,26.77
2018-09-24T06:43:33.768Z,24.90
2018-09-24T07:03:56.038Z,24.70
2018-09-24T07:06:29.319Z,24.33
2018-09-24T07:09:02.256Z,29.75
2018-09-24T07:11:35.360Z,26.90
2018-09-24T07:31:58.719Z,3.30
2018-09-24T07:34:31.779Z,4.18
2018-09-24T07:37:04.959Z,6.20
2018-09-24T07:39:37.973Z,3.50
2018-09-24T07:42:11.073Z,3.95
2018-09-24T07:57:31.686Z,4.30
2018-09-24T08:00:04.780Z,5.22
2018-09-24T08:02:37.969Z,4.50
2018-09-24T08:05:11.138Z,7.22
2018-09-24T08:07:44.185Z,5.22
2018-09-24T08:10:17.381Z,3.20
2018-09-24T08:12:51.185Z,3.10
2018-09-24T08:17:57.198Z,5.33
2018-09-24T08:20:30.284Z,3.15
2018-09-24T08:23:03.267Z,3.10
2018-09-24T08:25:36.347Z,4.45
2018-09-24T08:28:09.518Z,3.20
2018-09-24T08:30:42.435Z,4.43
2018-09-24T08:33:15.330Z,3.60
2018-09-24T08:35:48.610Z,3.50
2018-09-24T08:38:21.640Z,5.70
2018-09-24T08:40:54.752Z,8.50
2018-09-24T08:43:27.799Z,3.47
2018-09-24T08:46:00.956Z,3.50
2018-09-24T08:48:34.013Z,3.85
2018-09-24T08:51:07.146Z,3.47
2018-09-24T08:53:40.159Z,6.18
2018-09-24T08:56:13.324Z,7.50
2018-09-24T08:58:46.370Z,11.12
2018-09-24T09:01:19.394Z,5.93
2018-09-24T09:03:52.360Z,4.62
2018-09-24T09:06:25.560Z,3.33
2018-09-24T09:08:58.657Z,3.62
2018-09-24T09:11:31.744Z,2.90
2018-09-24T09:14:04.738Z,3.25
2018-09-24T09:16:37.623Z,3.40
2018-09-24T09:19:10.696Z,2.90
2018-09-24T09:21:43.787Z,3.17
2018-09-24T09:24:16.866Z,3.12
2018-09-24T09:26:49.978Z,3.20
2018-09-24T09:29:23.095Z,5.35
2018-09-24T09:31:56.171Z,3.40
2018-09-24T09:34:29.320Z,3.95
2018-09-24T09:37:02.467Z,7.37
2018-09-24T09:39:35.597Z,4.25
2018-09-24T09:42:08.685Z,4.30
2018-09-24T09:44:41.643Z,3.30
2018-09-24T09:47:15.664Z,4.22
2018-09-24T09:49:48.608Z,4.47
2018-09-24T09:52:22.525Z,5.57
2018-09-24T09:54:55.551Z,4.47
2018-09-24T09:57:28.553Z,5.62
2018-09-24T10:00:01.549Z,4.82
2018-09-24T10:02:34.660Z,3.80
2018-09-24T10:05:08.406Z,4.93
2018-09-24T10:07:41.599Z,3.70
2018-09-24T10:10:14.662Z,4.22
2018-09-24T10:12:47.750Z,4.80
2018-09-24T10:15:21.043Z,3.30
2018-09-24T10:17:54.282Z,3.60
2018-09-24T10:20:27.395Z,5.82
2018-09-24T10:23:00.549Z,3.62
2018-09-24T10:25:33.641Z,4.50
2018-09-24T10:28:07.440Z,3.65
2018-09-24T10:30:40.686Z,3.70
2018-09-24T10:33:13.587Z,7.90
2018-09-24T10:35:46.651Z,3.95
2018-09-24T10:38:19.760Z,3.90
2018-09-24T10:40:52.850Z,3.50
2018-09-24T10:43:26.121Z,32.53
2018-09-24T10:45:59.261Z,49.50
2018-09-24T10:48:32.313Z,46.92
2018-09-24T10:51:06.121Z,46.72
2018-09-24T10:53:39.214Z,46.75
2018-09-24T10:56:12.461Z,47.67
2018-09-24T10:58:45.620Z,39.00
2018-09-24T11:01:18.671Z,44.20
2018-09-24T11:03:51.764Z,47.58
2018-09-24T11:06:24.828Z,47.70
2018-09-24T11:08:57.957Z,42.85
2018-09-24T11:11:30.959Z,41.53
2018-09-24T11:14:04.094Z,43.87
2018-09-24T11:16:38.353Z,43.97
2018-09-24T11:19:11.561Z,43.72
2018-09-24T11:21:44.549Z,47.45
2018-09-24T11:24:17.523Z,44.97
2018-09-24T11:26:50.574Z,46.75
2018-09-24T11:29:23.841Z,46.55
2018-09-24T11:31:56.941Z,47.05
2018-09-24T11:34:30.096Z,43.92
2018-09-24T11:37:03.284Z,44.38
2018-09-24T11:39:36.439Z,41.70
2018-09-24T11:42:09.463Z,46.20
2018-09-24T11:44:42.495Z,44.08
2018-09-24T11:47:15.360Z,44.85
2018-09-24T11:49:48.482Z,47.65
2018-09-24T11:52:21.467Z,45.65
2018-09-24T11:54:54.554Z,45.80
2018-09-24T11:57:27.484Z,42.92
2018-09-24T12:00:00.455Z,44.25
2018-09-24T12:02:33.366Z,42.38
2018-09-24T12:05:06.428Z,3.15
2018-09-24T12:07:39.515Z,3.40
2018-09-24T12:10:12.684Z,3.55
2018-09-24T12:12:45.830Z,3.55
2018-09-24T12:15:18.789Z,3.58
2018-09-24T12:17:51.860Z,5.95
2018-09-24T12:20:24.845Z,3.90
2018-09-24T12:22:58.046Z,3.90
2018-09-24T12:25:31.059Z,8.20
2018-09-24T12:28:04.207Z,3.70
2018-09-24T12:30:37.147Z,3.92
2018-09-24T12:33:10.765Z,3.50
2018-09-24T12:35:43.719Z,3.33
2018-09-24T12:38:16.892Z,4.30
2018-09-24T12:40:49.897Z,3.42
2018-09-24T12:43:23.179Z,4.10
2018-09-24T12:45:56.416Z,3.85
2018-09-24T12:48:29.508Z,2.80
2018-09-24T12:51:02.672Z,3.30
2018-09-24T12:53:35.719Z,3.62
2018-09-24T12:56:08.591Z,4.80
2018-09-24T12:58:41.732Z,3.90
2018-09-24T13:01:14.784Z,4.18
2018-09-24T13:03:47.832Z,5.53
2018-09-24T13:06:20.731Z,3.97
2018-09-24T13:08:53.824Z,3.65
2018-09-24T13:11:26.914Z,5.07
2018-09-24T13:14:00.066Z,3.33
2018-09-24T13:16:33.444Z,4.00
2018-09-24T13:19:06.575Z,5.87
2018-09-24T13:21:39.717Z,3.83
2018-09-24T13:24:12.837Z,3.40
2018-09-24T13:26:45.972Z,4.85
2018-09-24T13:29:19.193Z,5.75
2018-09-24T13:31:52.073Z,4.35
2018-09-24T13:34:25.252Z,6.05
2018-09-24T13:36:58.467Z,5.62
2018-09-24T13:39:31.471Z,6.15
2018-09-24T13:42:04.460Z,4.32
2018-09-24T13:44:37.424Z,3.85
2018-09-24T13:47:10.414Z,6.47
2018-09-24T13:49:43.591Z,3.47
2018-09-24T13:52:16.726Z,3.67
2018-09-24T13:54:49.809Z,3.20
2018-09-24T13:57:22.881Z,3.90
2018-09-24T13:59:55.945Z,3.80
2018-09-24T14:02:29.019Z,5.75
2018-09-24T14:05:02.230Z,6.28
2018-09-24T14:07:35.412Z,6.85
2018-09-24T14:10:08.418Z,3.80
2018-09-24T14:12:41.391Z,3.75
2018-09-24T14:15:14.367Z,21.70
2018-09-24T14:17:47.311Z,6.78
2018-09-24T14:20:20.603Z,3.25
2018-09-24T14:22:53.945Z,4.53
2018-09-24T14:25:27.291Z,4.12
2018-09-24T14:28:00.383Z,9.23
2018-09-24T14:30:33.592Z,3.40
2018-09-24T14:33:06.616Z,3.33
2018-09-24T14:35:39.763Z,4.00
2018-09-24T14:38:12.945Z,3.00
2018-09-24T14:40:45.971Z,3.70
2018-09-24T14:43:19.052Z,4.00
2018-09-24T14:45:52.219Z,3.30
2018-09-24T14:48:25.365Z,3.10
2018-09-24T14:50:58.535Z,3.10
2018-09-24T14:53:31.485Z,5.45
2018-09-24T14:56:04.513Z,3.10
2018-09-24T14:58:37.723Z,3.50
2018-09-24T15:01:10.950Z,4.90
2018-09-24T15:03:44.053Z,7.40
2018-09-24T15:06:17.105Z,3.50
2018-09-24T15:08:50.243Z,3.03
2018-09-24T15:11:23.303Z,3.00
2018-09-24T15:13:56.444Z,11.30
2018-09-24T15:16:29.549Z,4.55
2018-09-24T15:19:02.685Z,7.80
2018-09-24T15:21:35.822Z,4.62
2018-09-24T15:24:08.645Z,4.25
2018-09-24T15:26:41.696Z,4.18
2018-09-24T15:29:14.888Z,7.35
2018-09-24T15:31:48.032Z,5.37
2018-09-24T15:34:22.097Z,4.20
2018-09-24T15:36:55.089Z,6.37
2018-09-24T15:39:28.060Z,6.50
2018-09-24T15:42:01.143Z,6.40
2018-09-24T15:44:34.103Z,4.72
2018-09-24T15:47:07.216Z,4.40
2018-09-24T15:49:40.217Z,2.90
2018-09-24T15:52:13.299Z,4.68
2018-09-24T15:54:46.336Z,4.82
2018-09-24T15:57:19.364Z,5.60
2018-09-24T15:59:52.526Z,5.95
2018-09-24T16:02:25.617Z,3.15
2018-09-24T16:04:58.624Z,3.90
2018-09-24T16:07:31.723Z,3.50
2018-09-24T16:10:04.998Z,4.65
2018-09-24T16:12:38.080Z,3.95
2018-09-24T16:15:11.143Z,7.43
2018-09-24T16:17:44.239Z,3.97
2018-09-24T16:20:17.437Z,3.35
2018-09-24T16:22:50.399Z,3.20
2018-09-24T16:25:23.359Z,3.95
2018-09-24T16:27:56.488Z,3.97
2018-09-24T16:30:29.475Z,6.72
2018-09-24T16:33:02.674Z,3.92
2018-09-24T16:35:35.689Z,3.70
2018-09-24T16:38:08.781Z,7.93
2018-09-24T16:40:41.917Z,4.32
2018-09-24T16:43:14.922Z,3.50
2018-09-24T16:45:48.116Z,8.15
2018-09-24T16:48:21.091Z,3.45
2018-09-24T16:50:54.315Z,5.22
2018-09-24T16:53:27.389Z,4.55
2018-09-24T16:56:00.599Z,3.80
2018-09-24T16:58:33.800Z,3.58
2018-09-24T17:01:06.859Z,4.12
2018-09-24T17:03:39.962Z,3.78
2018-09-24T17:06:13.062Z,14.57
2018-09-24T17:08:46.662Z,7.22
2018-09-24T17:11:19.788Z,4.30
2018-09-24T17:13:52.809Z,4.57
2018-09-24T17:16:25.938Z,4.50
2018-09-24T17:18:58.974Z,4.12
2018-09-24T17:21:32.034Z,6.20
2018-09-24T17:24:05.746Z,3.40
2018-09-24T17:26:38.823Z,8.85
2018-09-24T17:29:11.869Z,3.37
2018-09-24T17:31:45.315Z,6.40
2018-09-24T17:34:18.458Z,3.40
2018-09-24T17:36:51.596Z,5.75
2018-09-24T17:39:24.695Z,6.15
2018-09-24T17:41:57.673Z,4.75
2018-09-24T17:44:30.797Z,3.80
2018-09-24T17:47:03.668Z,3.50
2018-09-24T17:49:36.781Z,3.95
2018-09-24T17:52:09.863Z,6.82
2018-09-24T17:54:42.941Z,4.20
2018-09-24T17:57:16.090Z,6.22
2018-09-24T17:59:49.145Z,3.50
2018-09-24T18:02:22.315Z,5.87
2018-09-24T18:04:55.392Z,3.78
2018-09-24T18:07:28.442Z,6.12
2018-09-24T18:10:01.490Z,6.25
2018-09-24T18:12:34.568Z,3.58
2018-09-24T18:15:07.609Z,5.65
2018-09-24T18:17:40.855Z,4.32
2018-09-24T18:20:13.918Z,3.33
2018-09-24T18:22:47.076Z,14.05
2018-09-24T18:25:20.174Z,3.60
2018-09-24T18:27:53.340Z,3.78
2018-09-24T18:30:26.363Z,7.82
2018-09-24T18:32:59.489Z,3.30
2018-09-24T18:35:32.611Z,5.32
2018-09-24T18:38:05.738Z,3.42
2018-09-24T18:40:38.916Z,5.47
2018-09-24T18:43:12.065Z,6.25
2018-09-24T18:45:45.189Z,7.55
2018-09-24T18:48:18.301Z,3.55
2018-09-24T18:50:51.458Z,13.93
2018-09-24T18:53:24.504Z,6.75
2018-09-24T18:55:57.478Z,3.28
2018-09-24T18:58:30.614Z,3.70
2018-09-24T19:01:03.840Z,4.53
2018-09-24T19:03:36.895Z,7.30
2018-09-24T19:06:10.015Z,3.60
2018-09-24T19:08:43.219Z,4.62
2018-09-24T19:11:16.393Z,4.62
2018-09-24T19:13:49.354Z,4.43
2018-09-24T19:16:22.397Z,4.68
2018-09-24T19:18:55.477Z,5.70
2018-09-24T19:21:28.547Z,5.05
2018-09-24T19:24:01.709Z,4.93
2018-09-24T19:26:34.842Z,4.22
2018-09-24T19:29:07.819Z,3.55
2018-09-24T19:31:41.004Z,5.05
2018-09-24T19:34:13.861Z,4.95
2018-09-24T19:36:47.061Z,3.30
2018-09-24T19:39:20.126Z,4.32
2018-09-24T19:41:53.218Z,4.15
2018-09-24T19:44:26.334Z,10.05
2018-09-24T19:46:59.406Z,6.22
2018-09-24T19:49:32.803Z,6.65
2018-09-24T19:52:05.919Z,6.40
2018-09-24T19:54:39.695Z,4.90
2018-09-24T19:57:12.696Z,3.70
2018-09-24T19:59:45.786Z,4.45
2018-09-24T20:02:18.844Z,4.75
2018-09-24T20:04:51.936Z,5.53
2018-09-24T20:07:24.893Z,3.50
2018-09-24T20:09:57.985Z,3.58
2018-09-24T20:12:31.109Z,5.78
2018-09-24T20:15:04.767Z,5.30
2018-09-24T20:17:37.777Z,4.32
2018-09-24T20:20:11.064Z,6.40
2018-09-24T20:22:43.981Z,7.55
2018-09-24T20:25:17.035Z,6.28
2018-09-24T20:27:50.110Z,4.10
2018-09-24T20:30:23.229Z,4.25
2018-09-24T20:32:56.255Z,5.55
2018-09-24T20:35:29.233Z,4.97
2018-09-24T20:38:02.330Z,4.82
2018-09-24T20:40:35.459Z,3.65
2018-09-24T20:43:08.540Z,5.95
2018-09-24T20:45:41.684Z,4.82
2018-09-24T20:48:14.896Z,3.37
2018-09-24T20:50:48.152Z,4.93
2018-09-24T20:53:21.661Z,4.15
2018-09-24T20:55:54.687Z,8.27
2018-09-24T20:58:27.911Z,3.28
2018-09-24T21:01:01.156Z,3.20
2018-09-24T21:03:34.330Z,5.30
2018-09-24T21:06:07.402Z,3.28
2018-09-24T21:08:40.523Z,6.40
2018-09-24T21:11:13.631Z,5.25
2018-09-24T21:13:46.600Z,4.00
2018-09-24T21:16:19.690Z,4.28
2018-09-24T21:18:52.628Z,4.20
2018-09-24T21:21:25.613Z,4.57
2018-09-24T21:23:58.673Z,3.35
2018-09-24T21:26:31.793Z,6.35
2018-09-24T21:29:04.846Z,5.87
2018-09-24T21:31:37.919Z,3.40
2018-09-24T21:34:11.058Z,4.47
2018-09-24T21:36:44.462Z,4.12
2018-09-24T21:39:17.529Z,5.20
2018-09-24T21:41:50.741Z,8.80
2018-09-24T21:44:23.787Z,3.70
2018-09-24T21:46:57.476Z,3.95
2018-09-24T21:49:30.343Z,6.70
2018-09-24T21:52:03.501Z,9.77
2018-09-24T21:54:36.423Z,5.45
2018-09-24T21:57:09.452Z,3.62
2018-09-24T21:59:42.545Z,5.28
2018-09-24T22:02:15.620Z,3.65
2018-09-24T22:04:48.694Z,3.30
2018-09-24T22:07:21.777Z,6.55
2018-09-24T22:09:54.876Z,3.30
2018-09-24T22:12:27.980Z,3.50
2018-09-24T22:15:01.079Z,8.38
2018-09-24T22:17:34.210Z,4.40
2018-09-24T22:20:07.303Z,4.65
2018-09-24T22:22:40.423Z,3.60
2018-09-24T22:25:13.537Z,10.52
2018-09-24T22:27:46.670Z,5.53
2018-09-24T22:30:19.813Z,4.70
2018-09-24T22:32:52.916Z,3.17
2018-09-24T22:35:25.976Z,9.02
2018-09-24T22:37:59.101Z,3.53
2018-09-24T22:40:32.168Z,3.45
2018-09-24T22:43:05.508Z,3.90
2018-09-24T22:45:38.436Z,4.95
2018-09-24T22:48:11.374Z,4.47
2018-09-24T22:50:44.437Z,4.85
2018-09-24T22:53:17.615Z,3.50
2018-09-24T22:55:50.567Z,6.75
2018-09-24T22:58:23.735Z,4.25
2018-09-24T23:00:56.932Z,4.60
2018-09-24T23:03:30.016Z,3.40
2018-09-24T23:06:03.139Z,3.60
2018-09-24T23:08:36.232Z,6.95
2018-09-24T23:11:09.336Z,3.97
2018-09-24T23:13:42.420Z,5.47
2018-09-24T23:16:15.551Z,3.70
2018-09-24T23:18:48.402Z,6.15
2018-09-24T23:21:21.490Z,5.28
2018-09-24T23:23:54.746Z,4.80
2018-09-24T23:26:27.773Z,3.65
2018-09-24T23:29:01.055Z,4.03
2018-09-24T23:31:34.133Z,5.82
2018-09-24T23:34:07.176Z,3.60
2018-09-24T23:36:40.162Z,3.45
2018-09-24T23:39:13.201Z,3.72
2018-09-24T23:41:46.187Z,4.10
2018-09-24T23:44:19.254Z,4.05
2018-09-24T23:46:52.372Z,7.00
2018-09-24T23:49:25.473Z,7.60
2018-09-24T23:51:58.591Z,4.03
2018-09-24T23:54:31.851Z,3.20
2018-09-24T23:57:04.922Z,4.20
2018-09-24T23:59:38.117Z,8.45
